Christine M Mcallister — WDB4780 — position and weather

sailwx.info

Track history (hours):
 
Tides and Currents Weather Stations Pressure Air Temp Water Temp Dewpoint Dewpoint Depression Visibility Wind Speed Wind Dir Waves Ship Positions

Christine M Mcallister

Owner: MC ALLISTER TOWING & TRANSPORTATION INC, NY, NY. More information available from US FCC via Universal Licensing System and Coast Guard Vessel Documentation Center.

Last reported at 2017-Oct-15 12:48 UTC. Time now 2017-Oct-19 20:11 UTC.
Position N 25°32' W 079°56'.

; draft 6.2 m.

Type: Pollution control. MMSI: 362707956.

Date/timePositionNaut miles runAvg speedWind from/ knotsBaromVisibWave heightAir tempDewpointWater temp
2017-Oct-15 12:48N 25°32' W 079°56'2 6.0
2017-Oct-15 12:30N 25°33' W 079°57'3 6.1
2017-Oct-15 11:58N 25°37' W 079°57'3 6.1
2017-Oct-15 11:29N 25°39' W 079°58'3 6.1
2017-Oct-15 11:00N 25°42' W 079°59'3 6.0
2017-Oct-15 10:30N 25°45' W 079°59'3 6.1
2017-Oct-15 10:00N 25°48' W 079°60'3 6.1
2017-Oct-15 09:30N 25°51' W 079°60'3 6.6
2017-Oct-15 09:00N 25°55' W 079°60'4 7.3
2017-Oct-15 08:29N 25°59' W 079°60'4 7.6
2017-Oct-15 08:00N 26°02' W 079°59'4 7.5
2017-Oct-15 07:30N 26°06' W 079°59'4 7.4
2017-Oct-15 07:00N 26°10' W 079°59'4 7.7
2017-Oct-15 06:30N 26°13' W 079°59'4 7.7
2017-Oct-15 06:00N 26°17' W 079°59'35 7.8
2017-Oct-15 01:29N 26°52' W 079°59'3 6.3
2017-Oct-15 01:00N 26°55' W 079°59'4 7.3
2017-Oct-15 00:30N 26°59' W 079°60'4 7.8
2017-Oct-15 00:00N 27°03' W 080°00'216 4.8
2017-Oct-13 03:08N 30°21' W 081°37'0 0.0
2017-Oct-13 03:00N 30°21' W 081°37'0 0.0
2017-Oct-13 02:07N 30°21' W 081°37'  
2017-Oct-06 13:23N 39°35' W 074°03'4 9.6
2017-Oct-06 13:00N 39°39' W 074°02'5 9.6
2017-Oct-06 12:30N 39°43' W 074°01'5 9.5
2017-Oct-06 12:00N 39°48' W 073°60'5 9.4
2017-Oct-06 11:30N 39°53' W 073°59'6 9.5
2017-Oct-06 10:51N 39°59' W 073°58'3 9.5
2017-Oct-06 10:30N 40°02' W 073°58'5 9.5
2017-Oct-06 09:59N 40°07' W 073°58'4 9.3
2017-Oct-06 09:30N 40°12' W 073°57'5 9.3
2017-Oct-06 09:01N 40°16' W 073°56'5 9.3
2017-Oct-06 08:30N 40°21' W 073°56'5 9.6
2017-Oct-06 08:00N 40°26' W 073°56'5 9.0
2017-Oct-06 07:29N 40°30' W 073°57'510.3
2017-Oct-06 07:00N 40°34' W 074°02'5 9.6
2017-Oct-06 06:30N 40°38' W 074°04'2 4.9
2017-Oct-06 06:00N 40°39' W 074°07'0 0.2
2017-Oct-06 05:30N 40°39' W 074°07'0 0.0
2017-Oct-06 05:00N 40°39' W 074°07'0 0.8
2017-Oct-06 04:30N 40°39' W 074°07'0 0.0
2017-Oct-06 03:59N 40°39' W 074°07'0 0.0
2017-Oct-06 03:30N 40°39' W 074°07'0 0.0
2017-Oct-06 02:59N 40°39' W 074°07'0 0.0
2017-Oct-06 02:30N 40°39' W 074°07'0 0.0
2017-Oct-06 01:24N 40°39' W 074°07'2 5.2
2017-Oct-06 00:59N 40°38' W 074°09'0 0.7
2017-Oct-06 00:30N 40°38' W 074°10'1 3.0
2017-Oct-06 00:00N 40°38' W 074°12'0 0.0
2017-Oct-05 23:30N 40°38' W 074°12'0 0.0
2017-Oct-05 23:00N 40°38' W 074°12'0 0.0
2017-Oct-05 22:30N 40°38' W 074°12'0 0.0
2017-Oct-05 22:00N 40°38' W 074°12'0 0.0
2017-Oct-05 21:30N 40°38' W 074°12'0 0.0
2017-Oct-05 21:00N 40°38' W 074°12'0 0.0
2017-Oct-05 20:30N 40°38' W 074°12'0 0.0
2017-Oct-05 20:00N 40°38' W 074°12'0 0.0
2017-Oct-05 19:30N 40°38' W 074°12'0 0.0
2017-Oct-05 19:00N 40°38' W 074°12'0 0.0
2017-Oct-05 18:30N 40°38' W 074°12'0 0.0
2017-Oct-05 18:00N 40°38' W 074°12'0 0.0
2017-Oct-05 17:30N 40°38' W 074°12'0 0.0
2017-Oct-05 17:00N 40°38' W 074°12'1 0.5
2017-Oct-05 15:30N 40°39' W 074°11'1 1.9
2017-Oct-05 14:58N 40°38' W 074°10'0 0.0
2017-Oct-05 14:30N 40°38' W 074°10'0 0.0
2017-Oct-05 14:00N 40°38' W 074°10'0 0.0
2017-Oct-05 13:30N 40°38' W 074°10'0 0.0
2017-Oct-05 13:00N 40°38' W 074°10'  
Track history (hours):
 
Tides and Currents Weather Stations Pressure Air Temp Water Temp Dewpoint Dewpoint Depression Visibility Wind Speed Wind Dir Waves Ship Positions

Christine M Mcallister

Owner: MC ALLISTER TOWING & TRANSPORTATION INC, NY, NY. More information available from US FCC via Universal Licensing System and Coast Guard Vessel Documentation Center.

Last reported at 2017-Oct-15 12:48 UTC. Time now 2017-Oct-19 20:11 UTC.
Position N 25°32' W 079°56'.

; draft 6.2 m.

Type: Pollution control. MMSI: 362707956.

Date/timePositionNaut miles runAvg speedWind from/ knotsBaromVisibWave heightAir tempDewpointWater temp
2017-Oct-15 12:48N 25°32' W 079°56'2 6.0
2017-Oct-15 12:30N 25°33' W 079°57'3 6.1
2017-Oct-15 11:58N 25°37' W 079°57'3 6.1
2017-Oct-15 11:29N 25°39' W 079°58'3 6.1
2017-Oct-15 11:00N 25°42' W 079°59'3 6.0
2017-Oct-15 10:30N 25°45' W 079°59'3 6.1
2017-Oct-15 10:00N 25°48' W 079°60'3 6.1
2017-Oct-15 09:30N 25°51' W 079°60'3 6.6
2017-Oct-15 09:00N 25°55' W 079°60'4 7.3
2017-Oct-15 08:29N 25°59' W 079°60'4 7.6
2017-Oct-15 08:00N 26°02' W 079°59'4 7.5
2017-Oct-15 07:30N 26°06' W 079°59'4 7.4
2017-Oct-15 07:00N 26°10' W 079°59'4 7.7
2017-Oct-15 06:30N 26°13' W 079°59'4 7.7
2017-Oct-15 06:00N 26°17' W 079°59'35 7.8
2017-Oct-15 01:29N 26°52' W 079°59'3 6.3
2017-Oct-15 01:00N 26°55' W 079°59'4 7.3
2017-Oct-15 00:30N 26°59' W 079°60'4 7.8
2017-Oct-15 00:00N 27°03' W 080°00'216 4.8
2017-Oct-13 03:08N 30°21' W 081°37'0 0.0
2017-Oct-13 03:00N 30°21' W 081°37'0 0.0
2017-Oct-13 02:07N 30°21' W 081°37'  
2017-Oct-06 13:23N 39°35' W 074°03'4 9.6
2017-Oct-06 13:00N 39°39' W 074°02'5 9.6
2017-Oct-06 12:30N 39°43' W 074°01'5 9.5
2017-Oct-06 12:00N 39°48' W 073°60'5 9.4
2017-Oct-06 11:30N 39°53' W 073°59'6 9.5
2017-Oct-06 10:51N 39°59' W 073°58'3 9.5
2017-Oct-06 10:30N 40°02' W 073°58'5 9.5
2017-Oct-06 09:59N 40°07' W 073°58'4 9.3
2017-Oct-06 09:30N 40°12' W 073°57'5 9.3
2017-Oct-06 09:01N 40°16' W 073°56'5 9.3
2017-Oct-06 08:30N 40°21' W 073°56'5 9.6
2017-Oct-06 08:00N 40°26' W 073°56'5 9.0
2017-Oct-06 07:29N 40°30' W 073°57'510.3
2017-Oct-06 07:00N 40°34' W 074°02'5 9.6
2017-Oct-06 06:30N 40°38' W 074°04'2 4.9
2017-Oct-06 06:00N 40°39' W 074°07'0 0.2
2017-Oct-06 05:30N 40°39' W 074°07'0 0.0
2017-Oct-06 05:00N 40°39' W 074°07'0 0.8
2017-Oct-06 04:30N 40°39' W 074°07'0 0.0
2017-Oct-06 03:59N 40°39' W 074°07'0 0.0
2017-Oct-06 03:30N 40°39' W 074°07'0 0.0
2017-Oct-06 02:59N 40°39' W 074°07'0 0.0
2017-Oct-06 02:30N 40°39' W 074°07'0 0.0
2017-Oct-06 01:24N 40°39' W 074°07'2 5.2
2017-Oct-06 00:59N 40°38' W 074°09'0 0.7
2017-Oct-06 00:30N 40°38' W 074°10'1 3.0
2017-Oct-06 00:00N 40°38' W 074°12'0 0.0
2017-Oct-05 23:30N 40°38' W 074°12'0 0.0
2017-Oct-05 23:00N 40°38' W 074°12'0 0.0
2017-Oct-05 22:30N 40°38' W 074°12'0 0.0
2017-Oct-05 22:00N 40°38' W 074°12'0 0.0
2017-Oct-05 21:30N 40°38' W 074°12'0 0.0
2017-Oct-05 21:00N 40°38' W 074°12'0 0.0
2017-Oct-05 20:30N 40°38' W 074°12'0 0.0
2017-Oct-05 20:00N 40°38' W 074°12'0 0.0
2017-Oct-05 19:30N 40°38' W 074°12'0 0.0
2017-Oct-05 19:00N 40°38' W 074°12'0 0.0
2017-Oct-05 18:30N 40°38' W 074°12'0 0.0
2017-Oct-05 18:00N 40°38' W 074°12'0 0.0
2017-Oct-05 17:30N 40°38' W 074°12'0 0.0
2017-Oct-05 17:00N 40°38' W 074°12'1 0.5
2017-Oct-05 15:30N 40°39' W 074°11'1 1.9
2017-Oct-05 14:58N 40°38' W 074°10'0 0.0
2017-Oct-05 14:30N 40°38' W 074°10'0 0.0
2017-Oct-05 14:00N 40°38' W 074°10'0 0.0
2017-Oct-05 13:30N 40°38' W 074°10'0 0.0
2017-Oct-05 13:00N 40°38' W 074°10'  

Dump ship's entire track history